sensor_id;sensor_type;location;lat;lon;timestamp;temperature;humidity
66861;SHT31;53770;42.334;23.550;2022-09-01T00:00:38;14.57;78.72
66861;SHT31;53770;42.334;23.550;2022-09-01T00:03:06;14.53;78.80
66861;SHT31;53770;42.334;23.550;2022-09-01T00:05:35;14.49;78.91
66861;SHT31;53770;42.334;23.550;2022-09-01T00:08:02;14.43;79.04
66861;SHT31;53770;42.334;23.550;2022-09-01T00:10:29;14.43;79.20
66861;SHT31;53770;42.334;23.550;2022-09-01T00:12:56;14.43;79.22
66861;SHT31;53770;42.334;23.550;2022-09-01T00:15:25;14.44;79.21
66861;SHT31;53770;42.334;23.550;2022-09-01T00:17:52;14.47;79.10
66861;SHT31;53770;42.334;23.550;2022-09-01T00:20:19;14.53;78.98
66861;SHT31;53770;42.334;23.550;2022-09-01T00:22:46;14.53;78.93
66861;SHT31;53770;42.334;23.550;2022-09-01T00:25:13;14.57;78.69
66861;SHT31;53770;42.334;23.550;2022-09-01T00:27:43;14.59;78.54
66861;SHT31;53770;42.334;23.550;2022-09-01T00:30:11;14.60;78.30
66861;SHT31;53770;42.334;23.550;2022-09-01T00:32:40;14.52;78.30
66861;SHT31;53770;42.334;23.550;2022-09-01T00:35:11;14.47;78.46
66861;SHT31;53770;42.334;23.550;2022-09-01T00:37:37;14.46;78.58
66861;SHT31;53770;42.334;23.550;2022-09-01T00:40:06;14.43;78.61
66861;SHT31;53770;42.334;23.550;2022-09-01T00:42:33;14.35;78.63
66861;SHT31;53770;42.334;23.550;2022-09-01T00:45:00;14.26;78.90
66861;SHT31;53770;42.334;23.550;2022-09-01T00:47:27;14.21;79.10
66861;SHT31;53770;42.334;23.550;2022-09-01T00:49:55;14.16;79.21
66861;SHT31;53770;42.334;23.550;2022-09-01T00:52:26;14.18;79.08
66861;SHT31;53770;42.334;23.550;2022-09-01T00:54:57;14.15;78.95
66861;SHT31;53770;42.334;23.550;2022-09-01T00:57:26;14.14;79.09
66861;SHT31;53770;42.334;23.550;2022-09-01T00:59:56;14.12;79.10
66861;SHT31;53770;42.334;23.550;2022-09-01T01:02:24;14.18;79.10
66861;SHT31;53770;42.334;23.550;2022-09-01T01:04:51;14.19;78.86
66861;SHT31;53770;42.334;23.550;2022-09-01T01:07:24;14.22;78.76
66861;SHT31;53770;42.334;23.550;2022-09-01T01:09:52;14.25;78.74
66861;SHT31;53770;42.334;23.550;2022-09-01T01:12:20;14.24;78.63
66861;SHT31;53770;42.334;23.550;2022-09-01T01:14:48;14.24;78.62
66861;SHT31;53770;42.334;23.550;2022-09-01T01:17:16;14.26;78.57
66861;SHT31;53770;42.334;23.550;2022-09-01T01:19:44;14.29;78.37
66861;SHT31;53770;42.334;23.550;2022-09-01T01:22:35;14.36;78.13
66861;SHT31;53770;42.334;23.550;2022-09-01T01:25:23;14.33;78.01
66861;SHT31;53770;42.334;23.550;2022-09-01T01:27:51;14.35;77.76
66861;SHT31;53770;42.334;23.550;2022-09-01T01:30:18;14.36;77.54
66861;SHT31;53770;42.334;23.550;2022-09-01T01:32:45;14.37;77.51
66861;SHT31;53770;42.334;23.550;2022-09-01T01:35:15;14.36;77.35
66861;SHT31;53770;42.334;23.550;2022-09-01T01:37:46;14.33;77.30
66861;SHT31;53770;42.334;23.550;2022-09-01T01:40:14;14.28;77.35
66861;SHT31;53770;42.334;23.550;2022-09-01T01:42:44;14.16;77.58
66861;SHT31;53770;42.334;23.550;2022-09-01T01:45:12;14.06;77.97
66861;SHT31;53770;42.334;23.550;2022-09-01T01:47:42;13.95;78.34
66861;SHT31;53770;42.334;23.550;2022-09-01T01:50:10;13.88;78.62
66861;SHT31;53770;42.334;23.550;2022-09-01T01:52:39;13.82;78.94
66861;SHT31;53770;42.334;23.550;2022-09-01T01:55:07;13.84;78.96
66861;SHT31;53770;42.334;23.550;2022-09-01T01:57:38;13.87;78.84
66861;SHT31;53770;42.334;23.550;2022-09-01T02:00:09;13.78;78.95
66861;SHT31;53770;42.334;23.550;2022-09-01T02:02:36;13.67;79.38
66861;SHT31;53770;42.334;23.550;2022-09-01T02:05:05;13.59;80.09
66861;SHT31;53770;42.334;23.550;2022-09-01T02:07:32;13.57;80.40
66861;SHT31;53770;42.334;23.550;2022-09-01T02:09:59;13.57;80.53
66861;SHT31;53770;42.334;23.550;2022-09-01T02:12:26;13.56;80.53
66861;SHT31;53770;42.334;23.550;2022-09-01T02:14:53;13.61;80.54
66861;SHT31;53770;42.334;23.550;2022-09-01T02:17:22;13.60;80.46
66861;SHT31;53770;42.334;23.550;2022-09-01T02:19:51;13.59;80.38
66861;SHT31;53770;42.334;23.550;2022-09-01T02:22:21;13.59;80.34
66861;SHT31;53770;42.334;23.550;2022-09-01T02:24:47;13.61;80.25
66861;SHT31;53770;42.334;23.550;2022-09-01T02:27:17;13.60;80.42
66861;SHT31;53770;42.334;23.550;2022-09-01T02:29:46;13.59;80.37
66861;SHT31;53770;42.334;23.550;2022-09-01T02:32:18;13.57;80.03
66861;SHT31;53770;42.334;23.550;2022-09-01T02:34:47;13.53;79.98
66861;SHT31;53770;42.334;23.550;2022-09-01T02:37:19;13.53;79.87
66861;SHT31;53770;42.334;23.550;2022-09-01T02:39:50;13.54;79.85
66861;SHT31;53770;42.334;23.550;2022-09-01T02:42:17;13.57;79.81
66861;SHT31;53770;42.334;23.550;2022-09-01T02:44:46;13.57;79.67
66861;SHT31;53770;42.334;23.550;2022-09-01T02:47:13;13.61;79.81
66861;SHT31;53770;42.334;23.550;2022-09-01T02:49:40;13.60;79.69
66861;SHT31;53770;42.334;23.550;2022-09-01T02:52:08;13.56;79.89
66861;SHT31;53770;42.334;23.550;2022-09-01T02:54:35;13.54;80.08
66861;SHT31;53770;42.334;23.550;2022-09-01T02:57:02;13.51;79.99
66861;SHT31;53770;42.334;23.550;2022-09-01T02:59:29;13.49;79.65
66861;SHT31;53770;42.334;23.550;2022-09-01T03:01:56;13.50;79.53
66861;SHT31;53770;42.334;23.550;2022-09-01T03:04:23;13.49;79.45
66861;SHT31;53770;42.334;23.550;2022-09-01T03:06:51;13.47;79.41
66861;SHT31;53770;42.334;23.550;2022-09-01T03:09:20;13.50;79.42
66861;SHT31;53770;42.334;23.550;2022-09-01T03:11:48;13.51;79.45
66861;SHT31;53770;42.334;23.550;2022-09-01T03:14:16;13.53;79.51
66861;SHT31;53770;42.334;23.550;2022-09-01T03:16:44;13.59;79.43
66861;SHT31;53770;42.334;23.550;2022-09-01T03:19:11;13.54;79.40
66861;SHT31;53770;42.334;23.550;2022-09-01T03:21:40;13.51;79.34
66861;SHT31;53770;42.334;23.550;2022-09-01T03:24:08;13.50;79.30
66861;SHT31;53770;42.334;23.550;2022-09-01T03:26:38;13.44;79.26
66861;SHT31;53770;42.334;23.550;2022-09-01T03:29:05;13.40;79.41
66861;SHT31;53770;42.334;23.550;2022-09-01T03:31:33;13.35;79.27
66861;SHT31;53770;42.334;23.550;2022-09-01T03:34:00;13.29;79.32
66861;SHT31;53770;42.334;23.550;2022-09-01T03:36:28;13.23;79.55
66861;SHT31;53770;42.334;23.550;2022-09-01T03:38:58;13.18;79.73
66861;SHT31;53770;42.334;23.550;2022-09-01T03:41:26;13.18;79.79
66861;SHT31;53770;42.334;23.550;2022-09-01T03:43:56;13.13;79.95
66861;SHT31;53770;42.334;23.550;2022-09-01T03:46:24;13.13;80.15
66861;SHT31;53770;42.334;23.550;2022-09-01T03:48:53;13.18;80.14
66861;SHT31;53770;42.334;23.550;2022-09-01T03:51:21;13.18;79.88
66861;SHT31;53770;42.334;23.550;2022-09-01T03:53:50;13.19;79.72
66861;SHT31;53770;42.334;23.550;2022-09-01T03:56:19;13.24;79.45
66861;SHT31;53770;42.334;23.550;2022-09-01T03:58:46;13.22;79.40
66861;SHT31;53770;42.334;23.550;2022-09-01T04:01:14;13.26;79.31
66861;SHT31;53770;42.334;23.550;2022-09-01T04:03:41;13.30;79.09
66861;SHT31;53770;42.334;23.550;2022-09-01T04:06:13;13.30;79.04
66861;SHT31;53770;42.334;23.550;2022-09-01T04:08:43;13.36;78.99
66861;SHT31;53770;42.334;23.550;2022-09-01T04:11:12;13.43;78.89
66861;SHT31;53770;42.334;23.550;2022-09-01T04:13:41;13.50;78.79
66861;SHT31;53770;42.334;23.550;2022-09-01T04:16:18;13.51;78.66
66861;SHT31;53770;42.334;23.550;2022-09-01T04:19:02;13.54;78.59
66861;SHT31;53770;42.334;23.550;2022-09-01T04:21:40;13.57;78.49
66861;SHT31;53770;42.334;23.550;2022-09-01T04:24:08;13.57;78.35
66861;SHT31;53770;42.334;23.550;2022-09-01T04:26:37;13.56;78.15
66861;SHT31;53770;42.334;23.550;2022-09-01T04:29:06;13.54;78.20
66861;SHT31;53770;42.334;23.550;2022-09-01T04:31:38;13.53;78.44
66861;SHT31;53770;42.334;23.550;2022-09-01T04:34:06;13.50;78.48
66861;SHT31;53770;42.334;23.550;2022-09-01T04:36:36;13.56;78.53
66861;SHT31;53770;42.334;23.550;2022-09-01T04:39:07;13.59;78.35
66861;SHT31;53770;42.334;23.550;2022-09-01T04:41:38;13.70;78.27
66861;SHT31;53770;42.334;23.550;2022-09-01T04:44:06;13.77;78.00
66861;SHT31;53770;42.334;23.550;2022-09-01T04:46:36;13.89;77.63
66861;SHT31;53770;42.334;23.550;2022-09-01T04:49:07;13.97;77.33
66861;SHT31;53770;42.334;23.550;2022-09-01T04:51:37;14.04;77.06
66861;SHT31;53770;42.334;23.550;2022-09-01T04:54:04;14.09;76.89
66861;SHT31;53770;42.334;23.550;2022-09-01T04:56:36;14.19;76.57
66861;SHT31;53770;42.334;23.550;2022-09-01T04:59:03;14.25;76.46
66861;SHT31;53770;42.334;23.550;2022-09-01T05:01:33;14.36;76.19
66861;SHT31;53770;42.334;23.550;2022-09-01T05:04:09;14.46;75.96
66861;SHT31;53770;42.334;23.550;2022-09-01T05:06:39;14.56;75.65
66861;SHT31;53770;42.334;23.550;2022-09-01T05:09:07;14.63;75.44
66861;SHT31;53770;42.334;23.550;2022-09-01T05:11:36;14.73;75.24
66861;SHT31;53770;42.334;23.550;2022-09-01T05:14:04;14.83;74.86
66861;SHT31;53770;42.334;23.550;2022-09-01T05:16:32;14.87;74.75
66861;SHT31;53770;42.334;23.550;2022-09-01T05:19:00;15.00;74.73
66861;SHT31;53770;42.334;23.550;2022-09-01T05:21:28;15.05;74.61
66861;SHT31;53770;42.334;23.550;2022-09-01T05:23:57;15.11;74.63
66861;SHT31;53770;42.334;23.550;2022-09-01T05:26:27;15.19;74.58
66861;SHT31;53770;42.334;23.550;2022-09-01T05:28:57;15.27;74.61
66861;SHT31;53770;42.334;23.550;2022-09-01T05:31:26;15.35;74.61
66861;SHT31;53770;42.334;23.550;2022-09-01T05:33:54;15.45;75.14
66861;SHT31;53770;42.334;23.550;2022-09-01T05:36:23;15.46;76.75
66861;SHT31;53770;42.334;23.550;2022-09-01T05:38:52;15.53;76.90
66861;SHT31;53770;42.334;23.550;2022-09-01T05:41:19;15.63;76.71
66861;SHT31;53770;42.334;23.550;2022-09-01T05:43:48;15.70;76.80
66861;SHT31;53770;42.334;23.550;2022-09-01T05:46:19;15.77;76.83
66861;SHT31;53770;42.334;23.550;2022-09-01T05:48:48;15.87;76.10
66861;SHT31;53770;42.334;23.550;2022-09-01T05:51:18;15.96;76.17
66861;SHT31;53770;42.334;23.550;2022-09-01T05:53:47;16.08;74.75
66861;SHT31;53770;42.334;23.550;2022-09-01T05:56:17;16.21;74.42
66861;SHT31;53770;42.334;23.550;2022-09-01T05:58:45;16.36;74.73
66861;SHT31;53770;42.334;23.550;2022-09-01T06:01:16;16.53;74.41
66861;SHT31;53770;42.334;23.550;2022-09-01T06:03:47;16.63;74.11
66861;SHT31;53770;42.334;23.550;2022-09-01T06:06:18;16.75;74.17
66861;SHT31;53770;42.334;23.550;2022-09-01T06:08:47;16.93;74.22
66861;SHT31;53770;42.334;23.550;2022-09-01T06:11:14;17.11;73.51
66861;SHT31;53770;42.334;23.550;2022-09-01T06:13:44;17.20;71.65
66861;SHT31;53770;42.334;23.550;2022-09-01T06:16:12;17.25;71.90
66861;SHT31;53770;42.334;23.550;2022-09-01T06:18:40;17.31;72.00
66861;SHT31;53770;42.334;23.550;2022-09-01T06:21:09;17.42;72.14
66861;SHT31;53770;42.334;23.550;2022-09-01T06:23:39;17.54;72.30
66861;SHT31;53770;42.334;23.550;2022-09-01T06:26:14;17.68;71.65
66861;SHT31;53770;42.334;23.550;2022-09-01T06:28:43;17.82;71.72
66861;SHT31;53770;42.334;23.550;2022-09-01T06:31:10;17.99;71.81
66861;SHT31;53770;42.334;23.550;2022-09-01T06:33:37;18.20;71.24
66861;SHT31;53770;42.334;23.550;2022-09-01T06:36:05;18.36;71.00
66861;SHT31;53770;42.334;23.550;2022-09-01T06:38:33;18.54;70.69
66861;SHT31;53770;42.334;23.550;2022-09-01T06:41:03;18.72;69.81
66861;SHT31;53770;42.334;23.550;2022-09-01T06:43:31;18.84;69.26
66861;SHT31;53770;42.334;23.550;2022-09-01T06:46:01;18.99;69.22
66861;SHT31;53770;42.334;23.550;2022-09-01T06:48:28;19.17;69.16
66861;SHT31;53770;42.334;23.550;2022-09-01T06:50:58;19.40;68.47
66861;SHT31;53770;42.334;23.550;2022-09-01T06:53:28;19.55;68.01
66861;SHT31;53770;42.334;23.550;2022-09-01T06:55:56;19.71;67.13
66861;SHT31;53770;42.334;23.550;2022-09-01T06:58:23;19.89;66.78
66861;SHT31;53770;42.334;23.550;2022-09-01T07:00:51;20.05;66.40
66861;SHT31;53770;42.334;23.550;2022-09-01T07:03:19;20.25;65.46
66861;SHT31;53770;42.334;23.550;2022-09-01T07:05:47;20.43;64.08
66861;SHT31;53770;42.334;23.550;2022-09-01T07:08:17;20.58;63.91
66861;SHT31;53770;42.334;23.550;2022-09-01T07:10:48;20.75;62.93
66861;SHT31;53770;42.334;23.550;2022-09-01T07:13:17;20.94;62.62
66861;SHT31;53770;42.334;23.550;2022-09-01T07:15:45;21.15;61.83
66861;SHT31;53770;42.334;23.550;2022-09-01T07:18:14;21.32;61.74
66861;SHT31;53770;42.334;23.550;2022-09-01T07:20:43;21.53;60.87
66861;SHT31;53770;42.334;23.550;2022-09-01T07:23:13;21.71;60.31
66861;SHT31;53770;42.334;23.550;2022-09-01T07:25:43;21.90;60.05
66861;SHT31;53770;42.334;23.550;2022-09-01T07:28:11;22.07;59.60
66861;SHT31;53770;42.334;23.550;2022-09-01T07:30:41;22.22;59.84
66861;SHT31;53770;42.334;23.550;2022-09-01T07:33:08;22.36;57.96
66861;SHT31;53770;42.334;23.550;2022-09-01T07:35:38;22.45;58.14
66861;SHT31;53770;42.334;23.550;2022-09-01T07:38:08;22.59;59.08
66861;SHT31;53770;42.334;23.550;2022-09-01T07:40:36;22.77;58.65
66861;SHT31;53770;42.334;23.550;2022-09-01T07:43:05;22.97;58.29
66861;SHT31;53770;42.334;23.550;2022-09-01T07:45:35;23.15;58.13
66861;SHT31;53770;42.334;23.550;2022-09-01T07:48:05;23.34;57.22
66861;SHT31;53770;42.334;23.550;2022-09-01T07:50:34;23.49;56.56
66861;SHT31;53770;42.334;23.550;2022-09-01T07:53:01;23.61;56.35
66861;SHT31;53770;42.334;23.550;2022-09-01T07:55:30;23.83;55.82
66861;SHT31;53770;42.334;23.550;2022-09-01T07:57:57;24.06;55.24
66861;SHT31;53770;42.334;23.550;2022-09-01T08:00:24;24.21;53.85
66861;SHT31;53770;42.334;23.550;2022-09-01T08:02:52;24.30;53.35
66861;SHT31;53770;42.334;23.550;2022-09-01T08:05:19;24.34;52.19
66861;SHT31;53770;42.334;23.550;2022-09-01T08:07:51;24.48;53.07
66861;SHT31;53770;42.334;23.550;2022-09-01T08:10:18;24.65;53.88
66861;SHT31;53770;42.334;23.550;2022-09-01T08:12:47;24.90;53.40
66861;SHT31;53770;42.334;23.550;2022-09-01T08:15:14;25.12;52.20
66861;SHT31;53770;42.334;23.550;2022-09-01T08:17:43;25.30;51.35
66861;SHT31;53770;42.334;23.550;2022-09-01T08:20:10;25.47;49.92
66861;SHT31;53770;42.334;23.550;2022-09-01T08:22:37;25.61;49.82
66861;SHT31;53770;42.334;23.550;2022-09-01T08:25:05;25.81;50.17
66861;SHT31;53770;42.334;23.550;2022-09-01T08:27:33;26.08;49.51
66861;SHT31;53770;42.334;23.550;2022-09-01T08:30:05;26.30;48.19
66861;SHT31;53770;42.334;23.550;2022-09-01T08:32:33;26.44;48.03
66861;SHT31;53770;42.334;23.550;2022-09-01T08:35:01;26.65;47.46
66861;SHT31;53770;42.334;23.550;2022-09-01T08:37:29;26.90;46.87
66861;SHT31;53770;42.334;23.550;2022-09-01T08:39:56;27.09;46.04
66861;SHT31;53770;42.334;23.550;2022-09-01T08:42:36;27.30;46.44
66861;SHT31;53770;42.334;23.550;2022-09-01T08:45:12;27.50;44.90
66861;SHT31;53770;42.334;23.550;2022-09-01T08:47:41;27.76;44.36
66861;SHT31;53770;42.334;23.550;2022-09-01T08:50:08;27.91;44.30
66861;SHT31;53770;42.334;23.550;2022-09-01T08:52:39;28.07;43.55
66861;SHT31;53770;42.334;23.550;2022-09-01T08:55:12;28.24;43.60
66861;SHT31;53770;42.334;23.550;2022-09-01T08:57:41;28.39;43.40
66861;SHT31;53770;42.334;23.550;2022-09-01T09:00:13;28.62;43.58
66861;SHT31;53770;42.334;23.550;2022-09-01T09:02:50;28.91;42.33
66861;SHT31;53770;42.334;23.550;2022-09-01T09:05:29;29.21;41.49
66861;SHT31;53770;42.334;23.550;2022-09-01T09:08:14;29.38;41.58
66861;SHT31;53770;42.334;23.550;2022-09-01T09:10:49;29.73;41.23
66861;SHT31;53770;42.334;23.550;2022-09-01T09:13:22;30.03;40.25
66861;SHT31;53770;42.334;23.550;2022-09-01T09:15:59;30.47;39.29
66861;SHT31;53770;42.334;23.550;2022-09-01T09:18:30;30.78;38.34
66861;SHT31;53770;42.334;23.550;2022-09-01T09:21:05;31.07;37.50
66861;SHT31;53770;42.334;23.550;2022-09-01T09:23:38;31.40;36.63
66861;SHT31;53770;42.334;23.550;2022-09-01T09:26:06;31.77;36.80
66861;SHT31;53770;42.334;23.550;2022-09-01T09:28:33;32.16;35.53
66861;SHT31;53770;42.334;23.550;2022-09-01T09:31:27;32.44;35.77
66861;SHT31;53770;42.334;23.550;2022-09-01T09:33:55;32.60;35.35
66861;SHT31;53770;42.334;23.550;2022-09-01T09:36:29;32.98;35.40
66861;SHT31;53770;42.334;23.550;2022-09-01T09:39:08;33.30;35.29
66861;SHT31;53770;42.334;23.550;2022-09-01T09:41:36;33.48;35.33
66861;SHT31;53770;42.334;23.550;2022-09-01T09:44:15;33.81;34.14
66861;SHT31;53770;42.334;23.550;2022-09-01T09:46:45;34.41;33.11
66861;SHT31;53770;42.334;23.550;2022-09-01T09:49:18;34.85;32.75
66861;SHT31;53770;42.334;23.550;2022-09-01T09:51:50;35.40;32.05
66861;SHT31;53770;42.334;23.550;2022-09-01T09:54:21;35.98;31.41
66861;SHT31;53770;42.334;23.550;2022-09-01T09:57:02;36.68;30.45
66861;SHT31;53770;42.334;23.550;2022-09-01T09:59:30;37.35;29.71
66861;SHT31;53770;42.334;23.550;2022-09-01T10:02:13;38.04;27.92
66861;SHT31;53770;42.334;23.550;2022-09-01T10:04:43;38.39;26.65
66861;SHT31;53770;42.334;23.550;2022-09-01T10:07:31;38.21;27.56
66861;SHT31;53770;42.334;23.550;2022-09-01T10:09:59;38.60;27.10
66861;SHT31;53770;42.334;23.550;2022-09-01T10:12:28;39.09;27.21
66861;SHT31;53770;42.334;23.550;2022-09-01T10:14:59;39.88;26.42
66861;SHT31;53770;42.334;23.550;2022-09-01T10:17:31;40.78;25.28
66861;SHT31;53770;42.334;23.550;2022-09-01T10:20:02;41.56;24.48
66861;SHT31;53770;42.334;23.550;2022-09-01T10:22:33;42.42;23.79
66861;SHT31;53770;42.334;23.550;2022-09-01T10:25:00;43.28;22.76
66861;SHT31;53770;42.334;23.550;2022-09-01T10:27:29;44.03;22.05
66861;SHT31;53770;42.334;23.550;2022-09-01T10:30:03;44.70;20.97
66861;SHT31;53770;42.334;23.550;2022-09-01T10:32:34;45.15;20.99
66861;SHT31;53770;42.334;23.550;2022-09-01T10:35:05;45.50;20.67
66861;SHT31;53770;42.334;23.550;2022-09-01T10:37:33;46.15;20.44
66861;SHT31;53770;42.334;23.550;2022-09-01T10:40:16;47.03;19.64
66861;SHT31;53770;42.334;23.550;2022-09-01T10:42:45;48.05;18.74
66861;SHT31;53770;42.334;23.550;2022-09-01T10:45:18;49.07;18.39
66861;SHT31;53770;42.334;23.550;2022-09-01T10:47:48;49.66;17.51
66861;SHT31;53770;42.334;23.550;2022-09-01T10:50:26;49.72;17.34
66861;SHT31;53770;42.334;23.550;2022-09-01T10:52:58;49.97;17.21
66861;SHT31;53770;42.334;23.550;2022-09-01T10:55:31;50.47;17.01
66861;SHT31;53770;42.334;23.550;2022-09-01T11:01:07;50.37;16.81
66861;SHT31;53770;42.334;23.550;2022-09-01T11:03:51;50.34;16.72
66861;SHT31;53770;42.334;23.550;2022-09-01T11:09:28;47.89;18.08
66861;SHT31;53770;42.334;23.550;2022-09-01T11:14:54;44.24;20.26
66861;SHT31;53770;42.334;23.550;2022-09-01T11:17:23;42.22;22.26
66861;SHT31;53770;42.334;23.550;2022-09-01T11:19:58;40.63;23.68
66861;SHT31;53770;42.334;23.550;2022-09-01T11:22:31;40.65;23.51
66861;SHT31;53770;42.334;23.550;2022-09-01T11:28:07;39.62;24.93
66861;SHT31;53770;42.334;23.550;2022-09-01T11:30:39;41.03;23.51
66861;SHT31;53770;42.334;23.550;2022-09-01T11:33:37;41.16;23.04
66861;SHT31;53770;42.334;23.550;2022-09-01T11:36:14;39.52;24.02
66861;SHT31;53770;42.334;23.550;2022-09-01T11:38:47;37.66;25.81
66861;SHT31;53770;42.334;23.550;2022-09-01T11:41:25;35.85;27.74
66861;SHT31;53770;42.334;23.550;2022-09-01T11:43:59;34.75;29.18
66861;SHT31;53770;42.334;23.550;2022-09-01T11:46:28;34.13;30.35
66861;SHT31;53770;42.334;23.550;2022-09-01T11:48:59;35.30;29.03
66861;SHT31;53770;42.334;23.550;2022-09-01T11:51:38;38.17;27.19
66861;SHT31;53770;42.334;23.550;2022-09-01T11:54:06;41.36;24.13
66861;SHT31;53770;42.334;23.550;2022-09-01T11:56:33;43.83;21.78
66861;SHT31;53770;42.334;23.550;2022-09-01T11:59:00;45.15;19.92
66861;SHT31;53770;42.334;23.550;2022-09-01T12:01:32;45.60;19.63
66861;SHT31;53770;42.334;23.550;2022-09-01T12:04:17;46.52;18.64
66861;SHT31;53770;42.334;23.550;2022-09-01T12:06:52;47.38;17.78
66861;SHT31;53770;42.334;23.550;2022-09-01T12:09:19;47.99;17.23
66861;SHT31;53770;42.334;23.550;2022-09-01T12:11:46;48.43;17.19
66861;SHT31;53770;42.334;23.550;2022-09-01T12:14:20;47.75;18.04
66861;SHT31;53770;42.334;23.550;2022-09-01T12:16:56;47.91;17.77
66861;SHT31;53770;42.334;23.550;2022-09-01T12:19:25;48.08;17.13
66861;SHT31;53770;42.334;23.550;2022-09-01T12:21:58;48.26;16.86
66861;SHT31;53770;42.334;23.550;2022-09-01T12:24:26;48.66;16.81
66861;SHT31;53770;42.334;23.550;2022-09-01T12:26:54;49.05;16.57
66861;SHT31;53770;42.334;23.550;2022-09-01T12:29:23;49.41;16.39
66861;SHT31;53770;42.334;23.550;2022-09-01T12:31:52;49.56;16.10
66861;SHT31;53770;42.334;23.550;2022-09-01T12:34:30;49.80;16.00
66861;SHT31;53770;42.334;23.550;2022-09-01T12:37:05;50.11;16.08
66861;SHT31;53770;42.334;23.550;2022-09-01T12:39:33;50.01;16.35
66861;SHT31;53770;42.334;23.550;2022-09-01T12:42:07;48.17;17.19
66861;SHT31;53770;42.334;23.550;2022-09-01T12:44:44;45.49;18.48
66861;SHT31;53770;42.334;23.550;2022-09-01T12:47:13;44.16;20.19
66861;SHT31;53770;42.334;23.550;2022-09-01T12:50:03;44.41;20.59
66861;SHT31;53770;42.334;23.550;2022-09-01T12:52:33;45.64;19.86
66861;SHT31;53770;42.334;23.550;2022-09-01T12:55:11;46.63;19.08
66861;SHT31;53770;42.334;23.550;2022-09-01T12:57:45;46.90;18.85
66861;SHT31;53770;42.334;23.550;2022-09-01T13:00:17;47.23;18.71
66861;SHT31;53770;42.334;23.550;2022-09-01T13:02:46;47.23;18.69
66861;SHT31;53770;42.334;23.550;2022-09-01T13:05:25;46.39;18.84
66861;SHT31;53770;42.334;23.550;2022-09-01T13:07:55;45.11;19.22
66861;SHT31;53770;42.334;23.550;2022-09-01T13:10:24;42.88;20.51
66861;SHT31;53770;42.334;23.550;2022-09-01T13:12:52;40.41;22.55
66861;SHT31;53770;42.334;23.550;2022-09-01T13:15:20;38.38;24.41
66861;SHT31;53770;42.334;23.550;2022-09-01T13:17:47;36.77;25.70
66861;SHT31;53770;42.334;23.550;2022-09-01T13:20:14;35.51;27.04
66861;SHT31;53770;42.334;23.550;2022-09-01T13:22:40;34.63;27.97
66861;SHT31;53770;42.334;23.550;2022-09-01T13:25:11;34.01;29.44
66861;SHT31;53770;42.334;23.550;2022-09-01T13:27:40;33.69;30.40
66861;SHT31;53770;42.334;23.550;2022-09-01T13:30:10;34.56;29.61
66861;SHT31;53770;42.334;23.550;2022-09-01T13:32:37;35.23;28.65
66861;SHT31;53770;42.334;23.550;2022-09-01T13:35:06;35.74;28.60
66861;SHT31;53770;42.334;23.550;2022-09-01T13:37:32;37.14;27.11
66861;SHT31;53770;42.334;23.550;2022-09-01T13:40:00;38.42;25.61
66861;SHT31;53770;42.334;23.550;2022-09-01T13:42:28;39.86;24.23
66861;SHT31;53770;42.334;23.550;2022-09-01T13:44:55;41.13;23.09
66861;SHT31;53770;42.334;23.550;2022-09-01T13:47:22;42.18;22.10
66861;SHT31;53770;42.334;23.550;2022-09-01T13:49:49;42.79;21.66
66861;SHT31;53770;42.334;23.550;2022-09-01T13:52:16;43.15;21.32
66861;SHT31;53770;42.334;23.550;2022-09-01T13:54:44;42.77;21.12
66861;SHT31;53770;42.334;23.550;2022-09-01T13:57:12;42.42;21.17
66861;SHT31;53770;42.334;23.550;2022-09-01T13:59:41;40.73;21.81
66861;SHT31;53770;42.334;23.550;2022-09-01T14:02:08;38.72;23.62
66861;SHT31;53770;42.334;23.550;2022-09-01T14:04:36;36.98;24.45
66861;SHT31;53770;42.334;23.550;2022-09-01T14:07:03;36.06;25.72
66861;SHT31;53770;42.334;23.550;2022-09-01T14:09:29;35.21;26.84
66861;SHT31;53770;42.334;23.550;2022-09-01T14:11:56;35.34;27.26
66861;SHT31;53770;42.334;23.550;2022-09-01T14:14:23;35.31;27.53
66861;SHT31;53770;42.334;23.550;2022-09-01T14:16:52;34.76;28.12
66861;SHT31;53770;42.334;23.550;2022-09-01T14:19:19;33.84;29.21
66861;SHT31;53770;42.334;23.550;2022-09-01T14:21:47;32.91;30.85
66861;SHT31;53770;42.334;23.550;2022-09-01T14:24:14;32.02;32.36
66861;SHT31;53770;42.334;23.550;2022-09-01T14:26:44;31.23;33.64
66861;SHT31;53770;42.334;23.550;2022-09-01T14:29:11;30.57;35.00
66861;SHT31;53770;42.334;23.550;2022-09-01T14:31:38;30.02;35.56
66861;SHT31;53770;42.334;23.550;2022-09-01T14:34:06;29.52;36.59
66861;SHT31;53770;42.334;23.550;2022-09-01T14:36:34;28.97;37.78
66861;SHT31;53770;42.334;23.550;2022-09-01T14:39:00;28.59;38.90
66861;SHT31;53770;42.334;23.550;2022-09-01T14:41:27;28.15;39.14
66861;SHT31;53770;42.334;23.550;2022-09-01T14:43:55;27.80;39.31
66861;SHT31;53770;42.334;23.550;2022-09-01T14:46:23;27.42;40.54
66861;SHT31;53770;42.334;23.550;2022-09-01T14:48:50;27.11;40.95
66861;SHT31;53770;42.334;23.550;2022-09-01T14:51:24;26.91;41.29
66861;SHT31;53770;42.334;23.550;2022-09-01T14:53:52;26.74;41.91
66861;SHT31;53770;42.334;23.550;2022-09-01T14:56:20;26.58;42.28
66861;SHT31;53770;42.334;23.550;2022-09-01T14:58:47;26.53;42.80
66861;SHT31;53770;42.334;23.550;2022-09-01T15:01:15;26.51;43.62
66861;SHT31;53770;42.334;23.550;2022-09-01T15:03:42;26.64;43.40
66861;SHT31;53770;42.334;23.550;2022-09-01T15:06:10;26.60;43.52
66861;SHT31;53770;42.334;23.550;2022-09-01T15:08:39;26.50;43.63
66861;SHT31;53770;42.334;23.550;2022-09-01T15:11:08;26.44;43.92
66861;SHT31;53770;42.334;23.550;2022-09-01T15:13:35;26.41;44.26
66861;SHT31;53770;42.334;23.550;2022-09-01T15:16:03;26.53;44.29
66861;SHT31;53770;42.334;23.550;2022-09-01T15:18:30;26.68;44.30
66861;SHT31;53770;42.334;23.550;2022-09-01T15:20:57;26.56;44.68
66861;SHT31;53770;42.334;23.550;2022-09-01T15:23:24;26.29;45.67
66861;SHT31;53770;42.334;23.550;2022-09-01T15:25:54;25.98;46.72
66861;SHT31;53770;42.334;23.550;2022-09-01T15:28:22;25.54;47.92
66861;SHT31;53770;42.334;23.550;2022-09-01T15:30:49;25.33;48.70
66861;SHT31;53770;42.334;23.550;2022-09-01T15:33:17;25.00;49.32
66861;SHT31;53770;42.334;23.550;2022-09-01T15:35:44;24.69;49.71
66861;SHT31;53770;42.334;23.550;2022-09-01T15:38:13;24.37;50.69
66861;SHT31;53770;42.334;23.550;2022-09-01T15:40:41;24.04;51.48
66861;SHT31;53770;42.334;23.550;2022-09-01T15:43:09;23.69;53.15